Aérodrome :
LOGIN :

S'inscrire | Disclaimer

   EN    FR    IT 

 










Légende :    VFR   VFR Marginal   IFR   IFR Intensif   IFR Très Intensif
Visi : 
Plafond : 
>= 8 km
>= 3000ft
5 à 8 km
1000 à 3000 ft
1500m à 5 km
500 à 1000 ft
800 à 1500m
200 à 500 ft
< 800m
< 200 ft
Symboles :   Orages  Brouillard  Fortes neiges  Fortes précipitations  Vent > 20 kt
SIGMETs :   Divers  Orages  Givrage  Turbulence  Onde Orograph.  Cendres Volcan.







- Altitude de l'aérodrome : 616 ft
- Code IATA : PUF
- Voir les cartes d'approche


LFBP - Pau

DERNIER METAR :
  • 171700Z AUTO VRB06KT CAVOK 28/17 Q1019 NOSIG

METARs EXPIRÉS :
  • 171630Z AUTO VRB06KT CAVOK 28/18 Q1020 NOSIG
  • 171600Z AUTO VRB05KT CAVOK 28/17 Q1020 NOSIG
  • 171530Z AUTO VRB04KT CAVOK 28/17 Q1020 NOSIG
  • 171500Z AUTO VRB04KT CAVOK 28/17 Q1020 NOSIG
  • 171430Z AUTO VRB02KT CAVOK 28/16 Q1020 NOSIG

TAF TAF LFBP
Valide du 17 à 12h jusqu'au 18 à 12h UTC


171100Z 1712/1812 36007KT CAVOK
TEMPO 1712/1718 SCT025
BECMG 1720/1722 VRB02KT
BECMG 1804/1806 27010KT BKN010
PROB30
TEMPO 1805/1807 2000 -RADZ BR BKN003
Pas de NOTAMs connus pour ce terrain.



MET'MAP, la Météo Aéronautique d'un coup d'oeil ! - Copyright ORBIFLY Décembre 2007 - Disclaimer

ORBIFLY MET'MAP TEAM :

Programmation & Développement : Alexandra Zaïnal
Conception & Développement : Baudouin d'Aumeries
Co-Programmation & Développement : Marc-Olivier Méhu
Soutien technique & logistique : Manuel Goepfert

Contact : metmap@orbifly.com




SOURCES & CREDITS :

   NOAA